Time;durP1;ratioP1;P1;durP2;ratioP2;P2;SDS_P1;SDS_P2;PMS_P1;PMS_P2;Temp;Humidity;BMP_temperature;BMP_pressure;BME280_temperature;BME280_humidity;BME280_pressure;Samples;Min_cycle;Max_cycle;Signal;HPM_P1;HPM_P2
2023/01/04 00:02:03;;;;;;;3.88;1.40;;;;;;;10.68;100.00;99879.38;5071755;28;20036;-75
2023/01/04 00:04:28;;;;;;;1.65;0.93;;;;;;;10.70;100.00;99871.13;5039515;28;20039;-75
2023/01/04 00:06:55;;;;;;;7.20;1.45;;;;;;;10.76;100.00;99889.97;5071948;28;20463;-75
2023/01/04 00:09:21;;;;;;;8.27;1.85;;;;;;;10.84;100.00;99883.59;5039181;28;20490;-75
2023/01/04 00:11:46;;;;;;;1.80;0.77;;;;;;;10.91;100.00;99879.09;5072195;28;20020;-75
2023/01/04 00:14:13;;;;;;;5.15;1.50;;;;;;;10.96;100.00;99890.09;5055686;28;20094;-75
2023/01/04 00:16:38;;;;;;;1.60;0.77;;;;;;;10.91;100.00;99883.66;5038623;28;20115;-75
2023/01/04 00:19:04;;;;;;;3.45;1.48;;;;;;;10.88;100.00;99874.13;5071885;28;20021;-76
2023/01/04 00:21:33;;;;;;;8.18;1.95;;;;;;;10.92;100.00;99875.38;5071944;28;20063;-76
2023/01/04 00:24:00;;;;;;;11.48;3.45;;;;;;;10.95;100.00;99887.59;5055882;28;20090;-76
2023/01/04 00:26:34;;;;;;;9.65;2.25;;;;;;;11.02;100.00;99890.31;5039091;28;20086;-76
2023/01/04 00:29:03;;;;;;;20.67;2.72;;;;;;;11.05;100.00;99863.84;5039519;28;20028;-76
2023/01/04 00:31:30;;;;;;;15.32;1.90;;;;;;;11.10;100.00;99872.13;5072146;28;20036;-76
2023/01/04 00:33:57;;;;;;;17.60;2.50;;;;;;;11.11;100.00;99862.19;5055005;28;20103;-76
2023/01/04 00:36:23;;;;;;;17.08;2.92;;;;;;;11.14;100.00;99869.88;5071680;28;20043;-76
2023/01/04 00:39:08;;;;;;;10.25;2.15;;;;;;;11.09;100.00;99888.50;5055394;28;20123;-76
2023/01/04 00:41:44;;;;;;;4.78;2.03;;;;;;;11.10;100.00;99892.84;5071547;28;20038;-76
2023/01/04 00:44:11;;;;;;;11.07;3.03;;;;;;;11.06;100.00;99870.91;5038918;28;20513;-76
2023/01/04 00:46:38;;;;;;;19.98;2.83;;;;;;;11.06;100.00;99883.50;5055009;28;20047;-76
2023/01/04 00:49:04;;;;;;;12.10;3.75;;;;;;;11.05;100.00;99887.22;5022179;28;20395;-76
2023/01/04 00:51:31;;;;;;;8.23;2.20;;;;;;;11.07;100.00;99898.63;5038521;28;20036;-76
2023/01/04 00:53:59;;;;;;;11.43;2.63;;;;;;;11.11;100.00;99900.69;5071730;28;20033;-76
2023/01/04 00:56:24;;;;;;;10.85;3.03;;;;;;;11.11;100.00;99873.78;5055018;28;20035;-75
2023/01/04 00:58:57;;;;;;;33.08;6.07;;;;;;;11.04;100.00;99877.50;5072658;28;20410;-75
2023/01/04 01:01:24;;;;;;;21.52;4.95;;;;;;;11.01;100.00;99881.44;5038530;28;20036;-75
2023/01/04 01:03:56;;;;;;;26.02;5.20;;;;;;;10.94;100.00;99875.19;5071432;28;20390;-75
2023/01/04 01:06:23;;;;;;;38.80;4.78;;;;;;;10.95;100.00;99890.28;5054945;28;20039;-75
2023/01/04 01:08:50;;;;;;;12.73;3.15;;;;;;;10.99;100.00;99903.13;5071176;28;20028;-75
2023/01/04 01:11:15;;;;;;;17.27;4.43;;;;;;;10.97;100.00;99890.91;5071304;28;20024;-75
2023/01/04 01:13:41;;;;;;;25.08;3.92;;;;;;;11.17;100.00;99907.16;5071354;28;20501;-75
2023/01/04 01:16:10;;;;;;;24.10;4.65;;;;;;;11.26;100.00;99899.72;5024654;28;20489;-75
2023/01/04 01:18:37;;;;;;;22.88;4.38;;;;;;;11.22;100.00;99912.78;5025774;28;20474;-75
2023/01/04 01:21:10;;;;;;;28.65;4.93;;;;;;;11.19;100.00;99911.31;5041878;28;20032;-74
2023/01/04 01:23:35;;;;;;;15.07;3.80;;;;;;;11.05;100.00;99889.91;5025684;28;20033;-75
2023/01/04 01:26:03;;;;;;;25.70;4.18;;;;;;;10.98;100.00;99909.56;5074831;28;20111;-74
2023/01/04 01:28:29;;;;;;;18.73;3.67;;;;;;;10.82;100.00;99911.72;5041899;28;20539;-75
2023/01/04 01:30:55;;;;;;;11.43;2.70;;;;;;;10.70;100.00;99914.97;5074889;28;20033;-75
2023/01/04 01:33:20;;;;;;;15.75;3.45;;;;;;;10.63;100.00;99924.00;5058496;28;20175;-75
2023/01/04 01:35:46;;;;;;;23.30;3.45;;;;;;;10.51;100.00;99927.25;5058299;28;20478;-76
2023/01/04 01:38:12;;;;;;;15.25;4.03;;;;;;;10.53;100.00;99935.09;5075535;28;20463;-76
2023/01/04 01:40:41;;;;;;;30.48;4.80;;;;;;;10.55;100.00;99930.38;5075898;28;20040;-75
2023/01/04 01:43:18;;;;;;;8.73;2.97;;;;;;;10.60;100.00;99924.41;5057979;28;20054;-76
2023/01/04 01:45:46;;;;;;;10.77;2.88;;;;;;;10.66;100.00;99929.81;5058056;28;20056;-76
2023/01/04 01:48:17;;;;;;;14.68;3.38;;;;;;;10.69;100.00;99933.97;5057862;28;20032;-75
2023/01/04 01:50:47;;;;;;;21.13;4.30;;;;;;;10.67;100.00;99931.50;5041053;28;20389;-75
2023/01/04 01:53:13;;;;;;;25.02;3.80;;;;;;;10.74;100.00;99936.91;5058016;28;20382;-76
2023/01/04 01:55:40;;;;;;;19.98;3.88;;;;;;;10.69;100.00;99917.84;5057901;28;20029;-75
2023/01/04 01:58:06;;;;;;;34.28;5.00;;;;;;;10.84;100.00;99953.53;5057928;28;20036;-74
2023/01/04 02:00:32;;;;;;;28.35;4.00;;;;;;;10.79;100.00;99945.22;5074202;28;20067;-76
2023/01/04 02:03:13;;;;;;;20.83;4.97;;;;;;;10.74;100.00;99939.59;5057463;28;20435;-76
2023/01/04 02:05:39;;;;;;;23.63;4.88;;;;;;;10.53;100.00;99922.53;5041133;28;20040;-75
2023/01/04 02:08:06;;;;;;;24.83;5.13;;;;;;;10.59;100.00;99950.47;5057317;28;20033;-75
2023/01/04 02:10:32;;;;;;;29.95;5.53;;;;;;;10.46;100.00;99967.31;5074200;28;20033;-75
2023/01/04 02:13:05;;;;;;;20.70;4.40;;;;;;;10.33;100.00;99968.03;5073950;28;20045;-75
2023/01/04 02:15:44;;;;;;;31.42;6.68;;;;;;;10.27;100.00;99963.44;5040835;28;20475;-75
2023/01/04 02:18:13;;;;;;;15.93;3.95;;;;;;;10.26;100.00;99990.47;5040665;28;20058;-75
2023/01/04 02:20:57;;;;;;;31.27;4.88;;;;;;;10.26;100.00;99985.91;5073806;28;20078;-76
2023/01/04 02:23:28;;;;;;;24.70;4.72;;;;;;;10.33;100.00;99981.47;5074016;28;20497;-75
2023/01/04 02:25:54;;;;;;;29.13;4.65;;;;;;;10.36;100.00;99987.50;5073615;28;20031;-76
2023/01/04 02:28:51;;;;;;;21.48;3.60;;;;;;;10.22;100.00;99992.72;5073960;28;20028;-75
2023/01/04 02:31:50;;;;;;;26.85;4.22;;;;;;;10.08;100.00;99989.06;5073570;28;20411;-76
2023/01/04 02:34:22;;;;;;;21.05;3.90;;;;;;;9.99;100.00;100003.63;5040688;28;20029;-75
2023/01/04 02:36:56;;;;;;;37.03;4.43;;;;;;;9.96;100.00;99993.28;5073882;28;20429;-75
2023/01/04 02:39:28;;;;;;;17.55;4.57;;;;;;;10.01;100.00;100004.28;5073838;28;20036;-75
2023/01/04 02:41:58;;;;;;;16.70;4.30;;;;;;;10.04;100.00;100005.75;5074682;28;20115;-76
2023/01/04 02:44:53;;;;;;;23.08;3.95;;;;;;;10.00;100.00;99994.56;5073214;28;20391;-75
2023/01/04 02:50:30;;;;;;;26.60;5.22;;;;;;;9.83;100.00;99988.59;5073123;28;20082;-75
2023/01/04 02:53:01;;;;;;;24.05;4.35;;;;;;;9.89;100.00;100000.41;5041581;28;20121;-75
2023/01/04 02:55:51;;;;;;;27.00;5.65;;;;;;;9.94;100.00;100006.06;5056788;28;20036;-75
2023/01/04 02:58:28;;;;;;;32.03;6.28;;;;;;;10.11;100.00;100023.59;5025890;28;20506;-78
2023/01/04 03:07:04;;;;;;;30.08;5.18;;;;;;;10.16;100.00;100008.75;5074267;28;19908;-77
2023/01/04 03:09:33;;;;;;;21.10;3.88;;;;;;;10.19;100.00;100011.91;5072982;28;20086;-77
2023/01/04 03:14:59;;;;;;;23.10;4.55;;;;;;;10.35;100.00;100016.22;5072913;28;20142;-77
2023/01/04 03:17:27;;;;;;;25.13;4.95;;;;;;;10.32;100.00;100013.94;5056604;28;20039;-78
2023/01/04 03:19:54;;;;;;;22.42;4.32;;;;;;;10.33;100.00;100016.41;5040551;28;20044;-77
2023/01/04 03:37:19;;;;;;;26.90;5.32;;;;;;;10.21;100.00;100003.63;5072076;28;20040;-77
2023/01/04 03:49:22;;;;;;;30.38;5.40;;;;;;;9.90;100.00;100010.16;5072551;28;20113;-77
2023/01/04 03:51:51;;;;;;;26.92;5.10;;;;;;;9.90;100.00;100010.16;5055924;28;20496;-77
2023/01/04 03:54:21;;;;;;;34.72;6.72;;;;;;;9.90;100.00;100010.16;5072424;28;20047;-76
2023/01/04 03:56:47;;;;;;;36.22;7.50;;;;;;;9.90;100.00;100018.22;5072464;28;20067;-77
2023/01/04 03:59:12;;;;;;;35.15;6.47;;;;;;;9.89;100.00;100038.00;5072054;28;20063;-77
2023/01/04 04:01:39;;;;;;;35.75;6.82;;;;;;;9.89;100.00;100020.03;5072010;28;20028;-77
2023/01/04 04:09:34;;;;;;;36.13;6.50;;;;;;;9.89;100.00;100027.28;5072479;28;20024;-77
2023/01/04 04:11:59;;;;;;;30.98;6.50;;;;;;;9.98;100.00;100044.13;5073384;28;20052;-76
2023/01/04 04:14:25;;;;;;;26.60;5.43;;;;;;;10.01;100.00;100049.13;5072321;28;20029;-77
2023/01/04 04:16:50;;;;;;;35.17;7.13;;;;;;;10.02;100.00;100065.03;5055550;28;20032;-77
2023/01/04 04:19:16;;;;;;;2.38;1.38;;;;;;;9.92;100.00;100061.81;5072218;28;20440;-76
2023/01/04 04:21:42;;;;;;;11.73;3.63;;;;;;;9.84;100.00;100068.13;5071991;28;20033;-75
2023/01/04 04:24:16;;;;;;;3.83;1.73;;;;;;;9.76;100.00;100051.28;5072141;28;20155;-75
2023/01/04 04:26:42;;;;;;;0.73;0.70;;;;;;;9.66;100.00;100071.22;5038972;28;20041;-75
2023/01/04 04:29:07;;;;;;;4.40;1.98;;;;;;;9.54;100.00;100075.38;5038943;28;20037;-75
2023/01/04 04:31:35;;;;;;;4.63;1.20;;;;;;;9.47;100.00;100082.50;5072198;28;20033;-75
2023/01/04 04:34:01;;;;;;;1.48;0.82;;;;;;;9.31;100.00;100064.72;5039026;28;20429;-75
2023/01/04 04:36:27;;;;;;;1.92;1.40;;;;;;;9.24;100.00;100075.38;5055340;28;20486;-75
2023/01/04 04:38:53;;;;;;;0.70;0.70;;;;;;;9.26;100.00;100083.22;5073206;28;20473;-75
2023/01/04 04:44:13;;;;;;;0.80;0.68;;;;;;;9.32;100.00;100084.38;5072025;28;20099;-75
2023/01/04 04:46:40;;;;;;;1.15;0.63;;;;;;;9.33;100.00;100077.97;5023862;28;20052;-75
2023/01/04 04:49:06;;;;;;;1.17;0.82;;;;;;;9.38;100.00;100086.31;5073164;28;22338;-75
2023/01/04 04:51:32;;;;;;;0.50;0.50;;;;;;;9.40;100.00;100085.09;5059093;28;20044;-75
2023/01/04 04:53:57;;;;;;;1.05;0.63;;;;;;;9.46;100.00;100091.56;5059195;28;20029;-75
2023/01/04 04:56:23;;;;;;;0.40;0.40;;;;;;;9.51;100.00;100091.84;5058791;28;20381;-75
2023/01/04 04:58:49;;;;;;;1.08;0.95;;;;;;;9.51;100.00;100099.06;5042403;28;20063;-75
2023/01/04 05:01:15;;;;;;;0.40;0.40;;;;;;;9.48;100.00;100091.41;5075194;28;20028;-74
2023/01/04 05:03:41;;;;;;;0.82;0.60;;;;;;;9.45;100.00;100092.59;5042350;28;20064;-75
2023/01/04 05:06:07;;;;;;;0.40;0.40;;;;;;;9.41;100.00;100088.59;5042034;28;20078;-74
2023/01/04 05:08:32;;;;;;;0.50;0.50;;;;;;;9.33;100.00;100100.25;5058561;28;20032;-74
2023/01/04 05:10:58;;;;;;;0.60;0.50;;;;;;;9.28;100.00;100097.28;5058433;28;20094;-74
2023/01/04 05:13:24;;;;;;;0.47;0.47;;;;;;;9.34;100.00;100093.03;5075052;28;20032;-75
2023/01/04 05:15:51;;;;;;;0.85;0.60;;;;;;;9.36;100.00;100091.84;5075109;28;20386;-74
2023/01/04 05:18:19;;;;;;;3.22;1.30;;;;;;;9.31;100.00;100091.56;5075227;28;20039;-74
2023/01/04 05:20:46;;;;;;;0.30;0.30;;;;;;;9.36;100.00;100101.75;5042029;28;20044;-75
2023/01/04 05:23:13;;;;;;;0.60;0.47;;;;;;;9.38;100.00;100099.72;5042058;28;20035;-74
2023/01/04 05:25:39;;;;;;;0.40;0.40;;;;;;;9.52;100.00;100104.25;5058524;28;20032;-75
2023/01/04 05:28:08;;;;;;;0.95;0.52;;;;;;;9.54;100.00;100121.00;5074651;28;20491;-74
2023/01/04 05:30:54;;;;;;;0.75;0.75;;;;;;;9.56;100.00;100115.47;5041571;28;20036;-75
2023/01/04 05:33:20;;;;;;;0.30;0.30;;;;;;;9.60;100.00;100119.44;5058435;28;20044;-74
2023/01/04 05:35:47;;;;;;;1.65;0.77;;;;;;;9.60;100.00;100119.44;5058333;28;20036;-75
2023/01/04 05:38:12;;;;;;;12.25;2.15;;;;;;;9.33;100.00;100083.34;5058427;28;20036;-75
2023/01/04 05:40:38;;;;;;;4.45;1.13;;;;;;;9.61;100.00;100123.78;5074682;28;20028;-76
2023/01/04 05:43:04;;;;;;;2.08;0.85;;;;;;;9.64;100.00;100128.78;5074453;28;20040;-75
2023/01/04 05:45:30;;;;;;;2.85;0.82;;;;;;;9.68;100.00;100122.00;5074648;28;20062;-75
2023/01/04 05:47:56;;;;;;;0.30;0.30;;;;;;;9.68;100.00;100133.59;5074753;28;20041;-75
2023/01/04 05:50:22;;;;;;;4.63;0.63;;;;;;;9.66;100.00;100134.81;5057607;28;20025;-75
2023/01/04 05:52:49;;;;;;;1.38;0.63;;;;;;;9.67;100.00;100134.59;5058147;28;20036;-76
2023/01/04 05:55:14;;;;;;;3.47;0.60;;;;;;;9.67;100.00;100133.78;5058216;28;20363;-75
2023/01/04 05:57:40;;;;;;;0.52;0.40;;;;;;;9.72;100.00;100135.91;5058067;28;20493;-76
2023/01/04 06:00:07;;;;;;;2.70;1.05;;;;;;;9.76;100.00;100146.06;5057532;28;20032;-76
2023/01/04 06:02:33;;;;;;;1.75;0.65;;;;;;;9.79;100.00;100159.16;5057819;28;20028;-75
2023/01/04 06:05:01;;;;;;;0.50;0.50;;;;;;;9.72;100.00;100147.47;5057457;28;20524;-76
2023/01/04 06:07:29;;;;;;;0.63;0.60;;;;;;;9.73;100.00;100151.00;5058359;28;20025;-75
2023/01/04 06:09:54;;;;;;;0.40;0.40;;;;;;;9.78;100.00;100148.59;5057515;28;20509;-75
2023/01/04 06:12:20;;;;;;;1.75;0.52;;;;;;;9.72;100.00;100150.16;5073960;28;20032;-75
2023/01/04 06:14:46;;;;;;;0.85;0.85;;;;;;;9.65;100.00;100135.81;5057531;28;20037;-75
2023/01/04 06:17:12;;;;;;;0.30;0.30;;;;;;;9.61;100.00;100135.34;5074218;28;20029;-75
2023/01/04 06:19:37;;;;;;;0.75;0.75;;;;;;;9.55;100.00;100129.88;5057198;28;20036;-75
2023/01/04 06:22:03;;;;;;;3.00;0.95;;;;;;;9.54;100.00;100133.59;5073963;28;20086;-75
2023/01/04 06:24:29;;;;;;;1.08;0.60;;;;;;;9.61;100.00;100138.03;5057417;28;20028;-75
2023/01/04 06:26:55;;;;;;;0.98;0.50;;;;;;;9.65;100.00;100136.63;5074066;28;20478;-75
2023/01/04 06:29:20;;;;;;;0.38;0.38;;;;;;;9.69;100.00;100132.56;5040620;28;20077;-75
2023/01/04 06:31:46;;;;;;;7.80;1.58;;;;;;;9.82;100.00;100125.72;5075055;28;20063;-75
2023/01/04 06:34:13;;;;;;;0.40;0.40;;;;;;;9.91;100.00;100138.84;5056742;28;20032;-75
2023/01/04 06:36:41;;;;;;;0.50;0.50;;;;;;;9.85;100.00;100141.47;5040617;28;20032;-75
2023/01/04 06:39:07;;;;;;;5.40;1.60;;;;;;;9.79;100.00;100156.47;5073612;28;20119;-75
2023/01/04 06:41:33;;;;;;;1.65;0.75;;;;;;;9.71;100.00;100172.66;5040455;28;20191;-75
2023/01/04 06:43:59;;;;;;;3.88;0.85;;;;;;;9.64;100.00;100163.69;5056483;28;20436;-75
2023/01/04 06:46:24;;;;;;;3.40;0.98;;;;;;;9.60;100.00;100176.63;5040491;28;20093;-75
2023/01/04 06:48:52;;;;;;;0.50;0.50;;;;;;;9.55;100.00;100172.81;5073575;28;20032;-75
2023/01/04 06:51:19;;;;;;;0.50;0.50;;;;;;;9.49;100.00;100174.38;5041001;28;20037;-75
2023/01/04 06:53:45;;;;;;;3.55;1.10;;;;;;;9.38;100.00;100189.09;5056728;28;20040;-74
2023/01/04 06:56:11;;;;;;;1.15;0.80;;;;;;;9.27;100.00;100186.03;5057040;28;20051;-75
2023/01/04 06:58:41;;;;;;;0.50;0.50;;;;;;;9.13;100.00;100185.81;5073154;28;20462;-74
2023/01/04 07:01:07;;;;;;;3.47;1.00;;;;;;;9.05;100.00;100201.97;5056790;28;20036;-74
2023/01/04 07:03:32;;;;;;;0.40;0.40;;;;;;;9.09;100.00;100205.94;5023641;28;20028;-74
2023/01/04 07:05:58;;;;;;;9.02;1.27;;;;;;;9.12;100.00;100205.56;5072554;28;20037;-74
2023/01/04 07:08:24;;;;;;;1.30;0.70;;;;;;;9.18;100.00;100186.09;5056508;28;20033;-74
2023/01/04 07:10:50;;;;;;;1.33;0.57;;;;;;;9.31;100.00;100206.09;5056409;28;20025;-74
2023/01/04 07:13:16;;;;;;;0.40;0.40;;;;;;;9.39;100.00;100206.00;5055519;28;20131;-74
2023/01/04 07:15:42;;;;;;;0.73;0.50;;;;;;;9.48;100.00;100214.84;5039813;28;20538;-74
2023/01/04 07:18:10;;;;;;;0.90;0.65;;;;;;;9.49;100.00;100206.59;5056014;28;20063;-75
2023/01/04 07:20:37;;;;;;;5.63;1.05;;;;;;;9.49;100.00;100213.81;5072864;28;20037;-75
2023/01/04 07:23:04;;;;;;;0.45;0.40;;;;;;;9.42;100.00;100222.59;5056005;28;20033;-75
2023/01/04 07:25:29;;;;;;;1.15;0.95;;;;;;;9.31;100.00;100225.69;5039782;28;20127;-75
2023/01/04 07:27:55;;;;;;;0.75;0.50;;;;;;;9.27;100.00;100221.72;5056346;28;20428;-75
2023/01/04 07:30:22;;;;;;;0.55;0.52;;;;;;;9.28;100.00;100220.69;5039524;28;20119;-75
2023/01/04 07:32:49;;;;;;;0.40;0.40;;;;;;;9.27;100.00;100229.78;5055746;28;20452;-75
2023/01/04 07:35:15;;;;;;;0.63;0.63;;;;;;;9.24;100.00;100230.13;5039290;28;20032;-75
2023/01/04 07:37:44;;;;;;;3.22;0.60;;;;;;;9.04;100.00;100200.28;5073670;28;20375;-74
2023/01/04 07:40:10;;;;;;;2.45;0.95;;;;;;;9.30;100.00;100217.84;5072672;28;20043;-75
2023/01/04 07:42:36;;;;;;;1.00;0.90;;;;;;;9.36;100.00;100227.84;5055833;28;20486;-75
2023/01/04 07:45:03;;;;;;;0.60;0.60;;;;;;;9.43;100.00;100228.81;5039444;28;20032;-74
2023/01/04 07:47:29;;;;;;;0.40;0.40;;;;;;;9.48;100.00;100231.78;5056024;28;20036;-75
2023/01/04 07:49:54;;;;;;;0.55;0.40;;;;;;;9.56;100.00;100244.28;5072355;28;20085;-75
2023/01/04 07:52:20;;;;;;;0.68;0.68;;;;;;;9.56;100.00;100246.97;5055424;28;20032;-75
2023/01/04 07:54:46;;;;;;;2.85;1.20;;;;;;;9.55;100.00;100245.28;5072461;28;20028;-75
2023/01/04 07:57:12;;;;;;;0.40;0.40;;;;;;;9.51;100.00;100247.50;5072107;28;20032;-75
2023/01/04 07:59:37;;;;;;;0.70;0.70;;;;;;;9.45;100.00;100243.72;5039178;28;20035;-75
2023/01/04 08:02:03;;;;;;;0.40;0.40;;;;;;;9.42;100.00;100244.06;5072301;28;20029;-75
2023/01/04 08:04:29;;;;;;;0.47;0.47;;;;;;;9.44;100.00;100268.03;5071910;28;20036;-75
2023/01/04 08:06:54;;;;;;;0.40;0.40;;;;;;;9.28;100.00;100247.53;5071729;28;20064;-75
2023/01/04 08:09:20;;;;;;;1.75;0.70;;;;;;;9.33;100.00;100271.13;5055538;28;20027;-75
2023/01/04 08:11:46;;;;;;;0.65;0.40;;;;;;;9.38;100.00;100285.69;5071886;28;20051;-74
2023/01/04 08:14:12;;;;;;;0.43;0.40;;;;;;;9.40;100.00;100270.25;5071720;28;20407;-75
2023/01/04 08:16:40;;;;;;;0.40;0.40;;;;;;;9.43;100.00;100267.19;5055508;28;20036;-75
2023/01/04 08:19:14;;;;;;;0.40;0.40;;;;;;;9.34;100.00;100268.28;5038942;28;20033;-75
2023/01/04 08:21:40;;;;;;;0.40;0.40;;;;;;;9.32;100.00;100275.69;5039138;28;20052;-75
2023/01/04 08:24:06;;;;;;;0.40;0.40;;;;;;;9.28;100.00;100262.78;5057077;28;20196;-75
2023/01/04 08:26:32;;;;;;;0.32;0.32;;;;;;;9.37;100.00;100273.28;5076021;28;20471;-76
2023/01/04 08:28:58;;;;;;;0.40;0.40;;;;;;;9.37;100.00;100288.56;5075771;28;20104;-75
2023/01/04 08:31:27;;;;;;;0.40;0.40;;;;;;;9.31;100.00;100262.44;5059393;28;20028;-75
2023/01/04 08:33:53;;;;;;;0.40;0.40;;;;;;;9.43;100.00;100287.84;5042664;28;20042;-75
2023/01/04 08:36:20;;;;;;;0.40;0.40;;;;;;;9.49;100.00;100305.91;5042867;28;20036;-75
2023/01/04 08:38:47;;;;;;;0.40;0.40;;;;;;;9.47;100.00;100299.88;5059013;28;20821;-75
2023/01/04 08:41:13;;;;;;;0.40;0.40;;;;;;;9.42;100.00;100294.19;5042869;28;20051;-74
2023/01/04 08:43:39;;;;;;;0.30;0.30;;;;;;;9.48;100.00;100314.13;5059020;28;20397;-74
2023/01/04 08:46:05;;;;;;;0.30;0.30;;;;;;;9.52;100.00;100323.50;5075470;28;20033;-75
2023/01/04 08:48:34;;;;;;;0.43;0.43;;;;;;;9.51;100.00;100332.56;5075727;28;20123;-74
2023/01/04 08:51:02;;;;;;;0.40;0.40;;;;;;;9.43;100.00;100336.13;5075068;28;20033;-75
2023/01/04 08:53:28;;;;;;;0.30;0.30;;;;;;;9.38;100.00;100341.19;5058907;28;20056;-74
2023/01/04 08:55:54;;;;;;;0.50;0.50;;;;;;;9.28;100.00;100345.97;5025685;28;20456;-75
2023/01/04 08:58:21;;;;;;;3.63;0.70;;;;;;;9.34;100.00;100347.94;5075732;28;20044;-75
2023/01/04 09:00:47;;;;;;;1.90;0.68;;;;;;;9.37;100.00;100352.97;5058715;28;20513;-75
2023/01/04 09:03:13;;;;;;;1.30;0.50;;;;;;;9.33;100.00;100357.81;5058517;28;20107;-75
2023/01/04 09:05:39;;;;;;;0.50;0.50;;;;;;;9.31;100.00;100365.22;5058344;28;20071;-75
2023/01/04 09:08:04;;;;;;;0.50;0.50;;;;;;;9.24;100.00;100359.72;5058528;28;20056;-75
2023/01/04 09:10:30;;;;;;;0.50;0.50;;;;;;;9.15;100.00;100357.25;5058431;28;20020;-75
2023/01/04 09:12:56;;;;;;;1.95;0.47;;;;;;;9.19;100.00;100362.09;5058494;28;20058;-75
2023/01/04 09:15:21;;;;;;;0.40;0.40;;;;;;;9.33;100.00;100376.59;5058804;28;20044;-75
2023/01/04 09:17:50;;;;;;;0.47;0.47;;;;;;;9.35;100.00;100387.19;5058627;28;20040;-75
2023/01/04 09:20:17;;;;;;;0.40;0.40;;;;;;;9.40;100.00;100377.59;5074867;28;20043;-75
2023/01/04 09:22:42;;;;;;;0.43;0.40;;;;;;;9.41;100.00;100387.28;5058569;28;20028;-75
2023/01/04 09:25:08;;;;;;;1.30;0.43;;;;;;;9.35;100.00;100396.06;5075246;28;20040;-75
2023/01/04 09:27:34;;;;;;;0.40;0.40;;;;;;;9.28;100.00;100386.22;5074793;28;20032;-75
2023/01/04 09:29:59;;;;;;;0.40;0.40;;;;;;;9.33;100.00;100403.44;5074418;28;20066;-75
2023/01/04 09:32:25;;;;;;;0.60;0.60;;;;;;;9.45;100.00;100406.56;5074661;28;20025;-75
2023/01/04 09:34:51;;;;;;;0.40;0.40;;;;;;;9.62;100.00;100412.66;5057420;28;20078;-75
2023/01/04 09:37:17;;;;;;;0.40;0.40;;;;;;;9.71;100.00;100413.44;5057086;28;20390;-75
2023/01/04 09:39:43;;;;;;;0.40;0.40;;;;;;;9.87;100.00;100424.06;5074342;28;20033;-74
2023/01/04 09:42:31;;;;;;;0.47;0.47;;;;;;;9.93;100.00;100423.34;5041354;28;20454;-77
2023/01/04 09:45:20;;;;;;;2.08;0.40;;;;;;;9.90;100.00;100413.81;5057717;28;20040;-78
2023/01/04 09:47:58;;;;;;;0.47;0.47;;;;;;;9.90;100.00;100416.50;5058326;28;20128;-77
2023/01/04 09:50:34;;;;;;;0.40;0.40;;;;;;;9.68;100.00;100390.47;5057885;28;20482;-78
2023/01/04 09:53:05;;;;;;;0.40;0.40;;;;;;;9.70;100.00;100426.03;5058013;28;20193;-78
2023/01/04 09:55:39;;;;;;;0.65;0.60;;;;;;;9.81;100.00;100424.78;5057899;28;20166;-78
2023/01/04 09:58:22;;;;;;;0.68;0.65;;;;;;;9.97;100.00;100421.13;5024988;28;20033;-77
2023/01/04 10:00:53;;;;;;;0.50;0.50;;;;;;;10.01;100.00;100431.34;5057538;28;20033;-77
2023/01/04 10:04:04;;;;;;;0.40;0.40;;;;;;;9.98;100.00;100447.00;5041328;28;20035;-77
2023/01/04 10:06:32;;;;;;;1.10;0.50;;;;;;;9.95;100.00;100467.00;5046046;28;20067;-78
2023/01/04 10:09:01;;;;;;;0.88;0.88;;;;;;;10.02;100.00;100467.09;5074377;28;20025;-79
2023/01/04 10:11:55;;;;;;;0.40;0.40;;;;;;;10.04;100.00;100475.81;5041091;28;20036;-78
2023/01/04 10:14:26;;;;;;;0.73;0.55;;;;;;;10.15;100.00;100486.13;5075340;28;20143;-78
2023/01/04 10:17:12;;;;;;;1.00;0.63;;;;;;;10.26;100.00;100477.63;5074938;28;20067;-77
2023/01/04 10:20:03;;;;;;;1.63;0.60;;;;;;;10.11;100.00;100476.78;5054280;28;20051;-77
2023/01/04 10:22:44;;;;;;;0.40;0.40;;;;;;;10.30;100.00;100480.84;5057705;28;20037;-77
2023/01/04 10:25:24;;;;;;;0.50;0.50;;;;;;;11.67;100.00;100492.13;5057454;28;20035;-79
2023/01/04 10:27:49;;;;;;;1.25;0.75;;;;;;;11.58;100.00;100509.41;5057384;28;20032;-78
2023/01/04 10:30:33;;;;;;;6.18;1.25;;;;;;;11.18;100.00;100504.31;5073508;28;20423;-78
2023/01/04 10:33:11;;;;;;;5.70;1.25;;;;;;;10.90;100.00;100506.84;5057324;28;20041;-78
2023/01/04 10:35:37;;;;;;;5.95;0.90;;;;;;;10.92;100.00;100496.72;5040748;28;20085;-77
2023/01/04 10:38:15;;;;;;;4.47;0.90;;;;;;;10.63;100.00;100518.19;5073435;28;20383;-77
2023/01/04 10:40:43;;;;;;;17.05;2.63;;;;;;;10.48;100.00;100521.69;5057155;28;20071;-77
2023/01/04 10:43:28;;;;;;;2.97;1.23;;;;;;;10.53;100.00;100521.97;5040363;28;20097;-78
2023/01/04 10:45:54;;;;;;;5.05;1.75;;;;;;;10.84;100.00;100544.38;5073737;28;20089;-77
2023/01/04 10:48:23;;;;;;;10.63;1.52;;;;;;;11.00;100.00;100538.84;5073430;28;20033;-78
2023/01/04 10:50:59;;;;;;;7.53;1.60;;;;;;;10.98;100.00;100541.72;5056672;28;20040;-77
2023/01/04 10:53:43;;;;;;;3.22;1.08;;;;;;;11.16;100.00;100544.03;5073322;28;20044;-78
2023/01/04 10:56:19;;;;;;;8.27;1.67;;;;;;;11.35;100.00;100542.66;5057299;28;20124;-77
2023/01/04 10:58:51;;;;;;;6.05;2.35;;;;;;;11.40;100.00;100532.16;5073387;28;20044;-77
2023/01/04 11:01:32;;;;;;;14.90;3.05;;;;;;;11.75;100.00;100537.81;5073016;28;20036;-77
2023/01/04 11:04:10;;;;;;;13.27;2.67;;;;;;;11.89;100.00;100549.59;5073213;28;20115;-77
2023/01/04 11:07:18;;;;;;;4.57;1.27;;;;;;;12.15;100.00;100549.06;5072727;28;20032;-74
2023/01/04 11:09:47;;;;;;;6.13;2.08;;;;;;;12.03;100.00;100523.63;5010463;28;20040;-75
2023/01/04 11:12:15;;;;;;;8.57;3.35;;;;;;;13.00;100.00;100544.59;5056271;28;20500;-75
2023/01/04 11:14:41;;;;;;;7.03;1.70;;;;;;;13.99;100.00;100563.22;5056191;28;20049;-75
2023/01/04 11:17:08;;;;;;;9.57;2.38;;;;;;;13.43;100.00;100573.38;5023239;28;20044;-75
2023/01/04 11:19:35;;;;;;;14.98;2.88;;;;;;;12.81;100.00;100564.16;5072918;28;20042;-75
2023/01/04 11:22:08;;;;;;;8.10;2.67;;;;;;;13.14;100.00;100567.94;5056409;28;20489;-75
2023/01/04 11:24:34;;;;;;;13.80;3.10;;;;;;;13.31;100.00;100568.53;5039846;28;20036;-75
2023/01/04 11:27:05;;;;;;;10.70;2.75;;;;;;;13.02;100.00;100566.84;5039665;28;20043;-75
2023/01/04 11:29:37;;;;;;;14.68;3.35;;;;;;;13.70;100.00;100572.44;5039585;28;20033;-77
2023/01/04 11:32:07;;;;;;;16.75;3.17;;;;;;;14.19;100.00;100567.88;5055884;28;20111;-75
2023/01/04 11:35:05;;;;;;;7.63;2.67;;;;;;;14.39;100.00;100568.72;5055849;28;20036;-76
2023/01/04 11:37:34;;;;;;;18.70;2.67;;;;;;;14.61;100.00;100555.88;5022877;28;20040;-77
2023/01/04 11:40:19;;;;;;;18.70;3.25;;;;;;;14.07;100.00;100564.91;5039539;28;20094;-75
2023/01/04 11:42:47;;;;;;;7.65;1.63;;;;;;;13.83;100.00;100572.50;5039379;28;20037;-76
2023/01/04 11:45:21;;;;;;;12.25;3.15;;;;;;;13.93;100.00;100561.31;5056015;28;20032;-75
2023/01/04 11:47:53;;;;;;;15.07;3.60;;;;;;;14.33;100.00;100558.72;5039487;28;20111;-75
2023/01/04 11:50:43;;;;;;;13.95;3.40;;;;;;;14.25;100.00;100556.22;5038582;28;20067;-76
2023/01/04 11:53:26;;;;;;;14.43;2.75;;;;;;;13.17;100.00;100559.44;5055889;28;20036;-75
2023/01/04 11:56:17;;;;;;;11.68;2.53;;;;;;;12.61;100.00;100556.75;5055932;28;20041;-75
2023/01/04 11:59:01;;;;;;;13.82;2.80;;;;;;;12.30;100.00;100555.22;5055376;28;20055;-75
2023/01/04 12:01:31;;;;;;;13.57;2.60;;;;;;;12.10;100.00;100562.25;5039445;28;20042;-74
2023/01/04 12:03:58;;;;;;;13.35;2.70;;;;;;;11.98;100.00;100559.22;5055544;28;20067;-76
2023/01/04 12:06:35;;;;;;;13.13;3.15;;;;;;;12.08;100.00;100561.63;5055707;28;20040;-75
2023/01/04 12:09:01;;;;;;;14.05;3.13;;;;;;;12.15;100.00;100567.91;5039116;28;20032;-76
2023/01/04 12:11:30;;;;;;;22.88;4.47;;;;;;;12.00;100.00;100559.88;5038249;28;20565;-75
2023/01/04 12:13:59;;;;;;;20.02;4.15;;;;;;;11.96;100.00;100565.81;5055454;28;20040;-76
2023/01/04 12:16:37;;;;;;;14.85;3.03;;;;;;;12.05;100.00;100564.69;5039053;28;20033;-75